Time;durP1;ratioP1;P1;durP2;ratioP2;P2;SDS_P1;SDS_P2;PMS_P1;PMS_P2;Temp;Humidity;BMP_temperature;BMP_pressure;BME280_temperature;BME280_humidity;BME280_pressure;Samples;Min_cycle;Max_cycle;Signal;HPM_P1;HPM_P2
2023/04/11 00:00:28;;;;;;;1.10;1.00;;;13.00;59.40;;;;;;4971390;28;20987;-75
2023/04/11 00:02:58;;;;;;;0.83;0.60;;;12.90;59.50;;;;;;4971531;28;20625;-73
2023/04/11 00:05:25;;;;;;;0.67;0.67;;;12.90;59.60;;;;;;4971094;28;20690;-72
2023/04/11 00:07:52;;;;;;;0.93;0.60;;;13.00;59.60;;;;;;4971140;28;20647;-72
2023/04/11 00:10:20;;;;;;;1.50;1.20;;;13.00;59.70;;;;;;4970022;28;21274;-72
2023/04/11 00:12:47;;;;;;;1.10;1.00;;;13.00;59.70;;;;;;4970828;28;20625;-73
2023/04/11 00:15:15;;;;;;;22.83;0.90;;;13.00;59.80;;;;;;4971578;28;20632;-72
2023/04/11 00:17:44;;;;;;;0.50;0.50;;;13.00;59.60;;;;;;4970981;28;20639;-72
2023/04/11 00:20:11;;;;;;;2.20;1.13;;;13.10;59.90;;;;;;4970590;28;20655;-73
2023/04/11 00:22:38;;;;;;;0.70;0.70;;;13.10;59.60;;;;;;4971190;28;20645;-72
2023/04/11 00:25:06;;;;;;;1.30;0.93;;;13.10;59.60;;;;;;4969651;28;20640;-72
2023/04/11 00:27:34;;;;;;;0.80;0.80;;;13.20;59.80;;;;;;4971154;28;20633;-72
2023/04/11 00:30:01;;;;;;;1.03;0.93;;;13.20;60.10;;;;;;4970244;28;20671;-72
2023/04/11 00:32:28;;;;;;;1.73;0.70;;;13.10;61.50;;;;;;4969055;28;20669;-72
2023/04/11 00:34:55;;;;;;;0.80;0.80;;;13.10;60.60;;;;;;4971227;28;20974;-73
2023/04/11 00:37:21;;;;;;;1.40;0.87;;;13.10;60.70;;;;;;4970222;28;20651;-72
2023/04/11 00:39:51;;;;;;;0.80;0.80;;;13.20;60.00;;;;;;4970129;28;21149;-72
2023/04/11 00:42:20;;;;;;;0.80;0.80;;;13.20;60.50;;;;;;4958561;28;20679;-72
2023/04/11 00:44:49;;;;;;;0.93;0.80;;;13.20;59.90;;;;;;4970732;28;21272;-72
2023/04/11 00:47:15;;;;;;;1.03;0.60;;;13.30;60.40;;;;;;4969711;28;20655;-72
2023/04/11 00:49:42;;;;;;;0.80;0.73;;;13.30;60.00;;;;;;4970426;28;20665;-72
2023/04/11 00:52:11;;;;;;;0.70;0.60;;;13.20;59.60;;;;;;4969214;28;21238;-73
2023/04/11 00:54:39;;;;;;;1.23;1.10;;;13.30;59.40;;;;;;4971241;28;20663;-72
2023/04/11 00:57:06;;;;;;;1.93;0.87;;;13.40;59.60;;;;;;4970158;28;21005;-72
2023/04/11 00:59:33;;;;;;;1.40;1.00;;;13.40;60.10;;;;;;4961135;28;20645;-72
2023/04/11 01:02:01;;;;;;;0.87;0.80;;;13.40;60.60;;;;;;4964472;28;20669;-73
2023/04/11 01:04:29;;;;;;;1.43;0.93;;;13.30;61.10;;;;;;4969491;28;21006;-72
2023/04/11 01:07:02;;;;;;;0.90;0.80;;;13.20;61.10;;;;;;4969342;28;20664;-72
2023/04/11 01:09:31;;;;;;;1.07;0.80;;;13.20;60.80;;;;;;4961237;28;20647;-73
2023/04/11 01:12:00;;;;;;;0.70;0.70;;;13.30;62.30;;;;;;4970136;28;20756;-72
2023/04/11 01:14:28;;;;;;;1.00;0.83;;;13.30;62.10;;;;;;4970027;28;20628;-72
2023/04/11 01:16:56;;;;;;;0.83;0.83;;;13.20;62.50;;;;;;4969987;28;20713;-72
2023/04/11 01:19:26;;;;;;;0.83;0.73;;;13.20;62.10;;;;;;4969239;28;20645;-72
2023/04/11 01:21:55;;;;;;;1.10;0.63;;;13.20;62.00;;;;;;4968619;28;20651;-73
2023/04/11 01:24:24;;;;;;;0.70;0.70;;;13.30;61.70;;;;;;4967477;28;21216;-73
2023/04/11 01:26:52;;;;;;;0.80;0.80;;;13.20;62.10;;;;;;4962767;28;20683;-72
2023/04/11 01:29:20;;;;;;;0.90;0.70;;;13.20;62.70;;;;;;4968953;28;20656;-73
2023/04/11 01:31:48;;;;;;;1.87;1.03;;;13.30;62.60;;;;;;4965420;28;20763;-72
2023/04/11 01:34:16;;;;;;;2.77;1.20;;;13.30;63.40;;;;;;4968109;28;20648;-72
2023/04/11 01:36:44;;;;;;;1.03;1.00;;;13.10;66.00;;;;;;4969657;28;20661;-72
2023/04/11 01:39:11;;;;;;;1.63;1.53;;;13.10;71.80;;;;;;4969709;28;21042;-72
2023/04/11 01:41:41;;;;;;;1.47;1.20;;;12.80;73.70;;;;;;4969669;28;20711;-72
2023/04/11 01:44:08;;;;;;;1.70;1.00;;;12.70;73.70;;;;;;4968640;28;20699;-72
2023/04/11 01:46:36;;;;;;;1.03;0.87;;;12.60;75.90;;;;;;4969783;28;20723;-72
2023/04/11 01:49:03;;;;;;;0.60;0.60;;;12.50;77.90;;;;;;4968943;28;20636;-72
2023/04/11 01:51:30;;;;;;;2.30;0.90;;;12.40;79.50;;;;;;4969950;28;20670;-72
2023/04/11 01:53:59;;;;;;;0.93;0.90;;;12.30;81.00;;;;;;4963832;28;20644;-72
2023/04/11 01:56:26;;;;;;;0.80;0.70;;;12.30;81.50;;;;;;4960352;28;20667;-72
2023/04/11 01:58:57;;;;;;;2.33;1.00;;;12.20;82.70;;;;;;4967210;28;21276;-73
2023/04/11 02:01:26;;;;;;;0.80;0.80;;;12.20;82.50;;;;;;4969316;28;20655;-73
2023/04/11 02:03:54;;;;;;;1.10;1.03;;;12.20;82.20;;;;;;4967553;28;20628;-73
2023/04/11 02:06:22;;;;;;;1.03;1.00;;;12.10;83.80;;;;;;4956176;28;21038;-73
2023/04/11 02:08:51;;;;;;;1.50;0.90;;;12.10;84.80;;;;;;4953567;28;20638;-73
2023/04/11 02:11:18;;;;;;;0.77;0.63;;;12.10;86.50;;;;;;4954317;28;20682;-73
2023/04/11 02:13:44;;;;;;;0.70;0.63;;;11.90;90.50;;;;;;4968965;28;20635;-73
2023/04/11 02:16:13;;;;;;;1.03;1.00;;;11.70;92.10;;;;;;4968831;28;20659;-73
2023/04/11 02:18:42;;;;;;;0.90;0.80;;;11.50;94.60;;;;;;4968719;28;20640;-73
2023/04/11 02:21:09;;;;;;;1.37;0.80;;;11.30;96.50;;;;;;4968572;28;20660;-73
2023/04/11 02:23:36;;;;;;;0.80;0.80;;;11.10;98.50;;;;;;4969178;28;20640;-73
2023/04/11 02:26:03;;;;;;;0.80;0.80;;;11.00;99.90;;;;;;4968081;28;20774;-73
2023/04/11 02:28:31;;;;;;;0.80;0.77;;;11.00;99.90;;;;;;4968656;28;20636;-73
2023/04/11 02:30:59;;;;;;;0.40;0.40;;;10.80;99.90;;;;;;4968863;28;20770;-73
2023/04/11 02:33:27;;;;;;;0.43;0.43;;;10.50;99.90;;;;;;4966312;28;20639;-73
2023/04/11 02:35:55;;;;;;;0.40;0.30;;;10.30;99.90;;;;;;4968501;28;20659;-73
2023/04/11 02:38:23;;;;;;;0.40;0.30;;;10.20;99.90;;;;;;4967332;28;20644;-73
2023/04/11 02:40:51;;;;;;;1.07;0.50;;;10.10;99.90;;;;;;4969043;28;20647;-73
2023/04/11 02:43:19;;;;;;;0.50;0.30;;;10.00;99.90;;;;;;4968306;28;20647;-73
2023/04/11 02:45:47;;;;;;;0.80;0.57;;;9.80;99.90;;;;;;4968988;28;20656;-73
2023/04/11 02:48:14;;;;;;;0.60;0.60;;;9.70;99.90;;;;;;4967470;28;20734;-73
2023/04/11 02:50:42;;;;;;;0.40;0.30;;;9.70;99.90;;;;;;4967254;28;21039;-73
2023/04/11 02:53:11;;;;;;;0.50;0.30;;;9.60;99.90;;;;;;4968330;28;20631;-73
2023/04/11 02:55:38;;;;;;;3.73;0.87;;;9.60;99.90;;;;;;4968237;28;21238;-73
2023/04/11 02:58:06;;;;;;;0.60;0.43;;;9.60;99.90;;;;;;4967977;28;20637;-73
2023/04/11 03:00:33;;;;;;;0.50;0.30;;;9.50;99.90;;;;;;4967983;28;20654;-73
2023/04/11 03:03:02;;;;;;;0.80;0.60;;;9.40;99.90;;;;;;4966942;28;20738;-73
2023/04/11 03:05:30;;;;;;;0.87;0.40;;;9.40;99.90;;;;;;4967470;28;20666;-73
2023/04/11 03:07:58;;;;;;;0.50;0.50;;;9.40;99.90;;;;;;4967985;28;20631;-73
2023/04/11 03:10:25;;;;;;;0.60;0.60;;;9.40;99.90;;;;;;4968293;28;21035;-73
2023/04/11 03:12:53;;;;;;;0.77;0.47;;;9.40;99.90;;;;;;4964846;28;20652;-73
2023/04/11 03:15:21;;;;;;;0.30;0.20;;;9.40;99.90;;;;;;4967260;28;20654;-73
2023/04/11 03:17:48;;;;;;;0.30;0.30;;;9.20;99.90;;;;;;4968063;28;20639;-73
2023/04/11 03:20:18;;;;;;;0.30;0.20;;;9.30;99.90;;;;;;4966212;28;20837;-73
2023/04/11 03:22:47;;;;;;;1.87;0.97;;;9.20;99.90;;;;;;4965285;28;21110;-73
2023/04/11 03:25:15;;;;;;;0.40;0.20;;;9.20;99.90;;;;;;4966078;28;20691;-72
2023/04/11 03:27:42;;;;;;;0.50;0.30;;;9.10;99.90;;;;;;4968760;28;21119;-73
2023/04/11 03:30:10;;;;;;;0.50;0.43;;;9.10;99.90;;;;;;4966449;28;21209;-73
2023/04/11 03:32:37;;;;;;;0.30;0.30;;;9.10;99.90;;;;;;4953401;28;20683;-73
2023/04/11 03:35:04;;;;;;;13.27;1.63;;;9.10;99.90;;;;;;4949056;28;20237;-73
2023/04/11 03:37:31;;;;;;;0.60;0.40;;;9.00;99.90;;;;;;4962536;28;20219;-73
2023/04/11 03:39:57;;;;;;;0.40;0.30;;;9.00;99.90;;;;;;4968062;28;20215;-73
2023/04/11 03:42:26;;;;;;;0.30;0.30;;;9.00;99.90;;;;;;4967890;28;20837;-73
2023/04/11 03:44:52;;;;;;;1.02;0.40;;;9.00;99.90;;;;;;4968234;28;20207;-73
2023/04/11 03:47:19;;;;;;;0.30;0.20;;;9.00;99.90;;;;;;4968471;28;20250;-73
2023/04/11 03:49:46;;;;;;;0.50;0.45;;;9.00;99.90;;;;;;4968433;28;20998;-73
2023/04/11 03:52:13;;;;;;;0.47;0.38;;;9.00;99.90;;;;;;4967589;28;20230;-73
2023/04/11 03:54:40;;;;;;;0.50;0.40;;;9.00;99.90;;;;;;4968729;28;20668;-73
2023/04/11 03:57:07;;;;;;;0.60;0.60;;;9.00;99.90;;;;;;4968018;28;20322;-73
2023/04/11 03:59:35;;;;;;;0.38;0.30;;;9.00;99.90;;;;;;4967416;28;20668;-73
2023/04/11 04:02:02;;;;;;;2.97;0.60;;;8.90;99.90;;;;;;4968532;28;20330;-73
2023/04/11 04:04:32;;;;;;;0.40;0.20;;;9.00;99.90;;;;;;4967938;28;20619;-73
2023/04/11 04:07:00;;;;;;;0.40;0.30;;;8.90;99.90;;;;;;4968139;28;20667;-73
2023/04/11 04:09:27;;;;;;;0.40;0.30;;;8.90;99.90;;;;;;4967976;28;20662;-73
2023/04/11 04:11:53;;;;;;;0.60;0.60;;;8.90;99.90;;;;;;4968281;28;21289;-73
2023/04/11 04:14:20;;;;;;;0.40;0.30;;;8.90;99.90;;;;;;4967737;28;20213;-73
2023/04/11 04:16:48;;;;;;;0.30;0.22;;;8.90;99.90;;;;;;4968314;28;20227;-73
2023/04/11 04:19:15;;;;;;;0.35;0.25;;;8.80;99.90;;;;;;4968397;28;20212;-73
2023/04/11 04:21:44;;;;;;;1.15;0.25;;;8.80;99.90;;;;;;4968145;28;20241;-73
2023/04/11 04:24:11;;;;;;;0.40;0.28;;;8.80;99.90;;;;;;4967430;28;20227;-73
2023/04/11 04:26:38;;;;;;;0.90;0.90;;;8.80;99.90;;;;;;4967510;28;20232;-73
2023/04/11 04:29:05;;;;;;;0.50;0.30;;;8.80;99.90;;;;;;4967394;28;20226;-73
2023/04/11 04:31:33;;;;;;;0.50;0.35;;;8.80;99.90;;;;;;4970156;28;20733;-73
2023/04/11 04:34:07;;;;;;;2.40;1.55;;;8.70;99.90;;;;;;4972526;28;20723;-73
2023/04/11 04:36:44;;;;;;;0.73;0.73;;;8.70;99.90;;;;;;4971429;28;20231;-73
2023/04/11 04:39:16;;;;;;;0.40;0.40;;;8.60;99.90;;;;;;4959528;28;20208;-73
2023/04/11 04:41:44;;;;;;;1.10;0.60;;;8.60;99.90;;;;;;4965733;28;20755;-73
2023/04/11 04:44:11;;;;;;;0.40;0.40;;;8.60;99.90;;;;;;4956096;28;20573;-73
2023/04/11 04:46:38;;;;;;;0.40;0.30;;;8.50;99.90;;;;;;4971425;28;20473;-73
2023/04/11 04:49:07;;;;;;;0.40;0.30;;;8.60;99.90;;;;;;4971274;28;20203;-73
2023/04/11 04:51:33;;;;;;;1.10;0.80;;;8.50;99.90;;;;;;4970991;28;20247;-73
2023/04/11 04:54:00;;;;;;;1.20;0.40;;;8.50;99.90;;;;;;4971285;28;20217;-73
2023/04/11 04:56:29;;;;;;;1.48;1.02;;;8.50;99.90;;;;;;4971239;28;20241;-73
2023/04/11 04:58:56;;;;;;;0.40;0.30;;;8.50;99.90;;;;;;4966691;28;20200;-73
2023/04/11 05:01:25;;;;;;;1.10;0.90;;;8.50;99.90;;;;;;4952162;29;20241;-73
2023/04/11 05:03:57;;;;;;;1.13;0.60;;;8.50;99.90;;;;;;4971247;28;20293;-73
2023/04/11 05:06:27;;;;;;;0.90;0.82;;;8.40;99.90;;;;;;4968441;28;20304;-73
2023/04/11 05:08:55;;;;;;;0.40;0.30;;;8.40;99.90;;;;;;4969264;28;20709;-73
2023/04/11 05:11:22;;;;;;;0.40;0.40;;;8.30;99.90;;;;;;4971318;28;20235;-73
2023/04/11 05:13:49;;;;;;;3.00;1.27;;;8.30;99.90;;;;;;4969922;28;20210;-71
2023/04/11 05:16:16;;;;;;;1.20;0.52;;;8.30;99.90;;;;;;4962873;28;20627;-72
2023/04/11 05:18:43;;;;;;;0.30;0.20;;;8.30;99.90;;;;;;4959046;28;20245;-72
2023/04/11 05:21:10;;;;;;;1.75;0.65;;;8.20;99.90;;;;;;4960723;28;20266;-72
2023/04/11 05:23:38;;;;;;;0.93;0.45;;;8.00;99.90;;;;;;4964702;28;20211;-74
2023/04/11 05:26:06;;;;;;;0.60;0.60;;;7.90;99.90;;;;;;4962908;28;20307;-73
2023/04/11 05:28:33;;;;;;;0.50;0.50;;;7.70;99.90;;;;;;4961033;28;20307;-73
2023/04/11 05:31:00;;;;;;;0.30;0.20;;;7.70;99.90;;;;;;4959997;28;20243;-74
2023/04/11 05:33:27;;;;;;;0.40;0.40;;;7.60;99.90;;;;;;4959528;28;20288;-73
2023/04/11 05:35:54;;;;;;;0.30;0.28;;;7.60;99.90;;;;;;4962871;28;20235;-76
2023/04/11 05:38:21;;;;;;;0.50;0.50;;;7.60;99.90;;;;;;4970019;28;20204;-75
2023/04/11 05:40:49;;;;;;;0.50;0.50;;;7.60;99.90;;;;;;4964359;28;20220;-74
2023/04/11 05:43:16;;;;;;;0.45;0.45;;;7.60;99.90;;;;;;4967025;28;20684;-73
2023/04/11 05:45:48;;;;;;;0.50;0.50;;;7.60;99.90;;;;;;4969697;28;20227;-74
2023/04/11 05:48:15;;;;;;;0.30;0.30;;;7.60;99.90;;;;;;4965727;28;20266;-75
2023/04/11 05:50:42;;;;;;;1.15;0.70;;;7.50;99.90;;;;;;4970386;28;20249;-73
2023/04/11 05:53:09;;;;;;;0.63;0.63;;;7.50;99.90;;;;;;4969667;28;20285;-73
2023/04/11 05:55:36;;;;;;;0.90;0.50;;;7.50;99.90;;;;;;4966933;28;20230;-73
2023/04/11 05:58:04;;;;;;;0.82;0.30;;;7.50;99.90;;;;;;4952048;28;20234;-72
2023/04/11 06:00:31;;;;;;;0.50;0.50;;;7.40;99.90;;;;;;4957814;28;20219;-73
2023/04/11 06:02:59;;;;;;;0.60;0.50;;;7.50;99.90;;;;;;4964993;28;20247;-72
2023/04/11 06:05:30;;;;;;;0.50;0.50;;;7.40;99.90;;;;;;4955619;28;20680;-73
2023/04/11 06:07:58;;;;;;;1.30;0.63;;;7.50;99.90;;;;;;4964368;28;20227;-73
2023/04/11 06:10:25;;;;;;;1.20;0.80;;;7.40;99.90;;;;;;4956738;28;20683;-73
2023/04/11 06:12:52;;;;;;;1.25;0.77;;;7.50;99.90;;;;;;4962684;28;21528;-73
2023/04/11 06:15:24;;;;;;;0.50;0.38;;;7.50;99.90;;;;;;4962126;28;20208;-73
2023/04/11 06:17:51;;;;;;;0.40;0.30;;;7.50;99.90;;;;;;4957772;28;20658;-73
2023/04/11 06:20:17;;;;;;;14.32;1.10;;;7.50;99.90;;;;;;4958121;28;20210;-73
2023/04/11 06:22:45;;;;;;;0.50;0.30;;;7.50;99.90;;;;;;4962416;28;20218;-73
2023/04/11 06:25:13;;;;;;;0.55;0.38;;;7.50;99.90;;;;;;4965310;28;20609;-76
2023/04/11 06:27:40;;;;;;;0.40;0.40;;;7.60;99.90;;;;;;4968544;28;20290;-81
2023/04/11 06:30:08;;;;;;;1.25;0.65;;;7.60;99.90;;;;;;4955774;28;20274;-72
2023/04/11 06:32:36;;;;;;;1.23;0.77;;;7.60;99.90;;;;;;4964898;28;20263;-73
2023/04/11 06:35:03;;;;;;;0.40;0.38;;;7.70;99.90;;;;;;4962139;28;20448;-72
2023/04/11 06:37:30;;;;;;;0.60;0.50;;;7.70;99.90;;;;;;4957713;28;20208;-72
2023/04/11 06:39:58;;;;;;;0.50;0.50;;;7.70;99.90;;;;;;4957905;28;20209;-72
2023/04/11 06:42:25;;;;;;;0.80;0.57;;;7.70;99.90;;;;;;4961016;28;20589;-72
2023/04/11 06:44:52;;;;;;;0.30;0.20;;;7.70;99.90;;;;;;4963211;28;20244;-72
2023/04/11 06:47:19;;;;;;;0.30;0.30;;;7.70;99.90;;;;;;4962507;28;20234;-73
2023/04/11 06:49:47;;;;;;;0.40;0.30;;;7.80;99.90;;;;;;4958999;28;20334;-72
2023/04/11 06:52:13;;;;;;;0.30;0.30;;;7.90;99.90;;;;;;4959677;28;20743;-71
2023/04/11 06:54:40;;;;;;;0.88;0.40;;;7.80;99.90;;;;;;4961419;28;20199;-72
2023/04/11 06:57:09;;;;;;;0.50;0.40;;;7.80;99.90;;;;;;4957972;28;20307;-73
2023/04/11 06:59:35;;;;;;;0.50;0.50;;;7.90;99.90;;;;;;4961529;28;20306;-73
2023/04/11 07:02:02;;;;;;;0.35;0.28;;;7.90;99.90;;;;;;4961878;28;20227;-73
2023/04/11 07:04:29;;;;;;;0.40;0.40;;;8.00;99.90;;;;;;4956310;28;20205;-73
2023/04/11 07:06:59;;;;;;;0.45;0.40;;;8.00;99.90;;;;;;4964609;28;20228;-73
2023/04/11 07:09:26;;;;;;;0.30;0.20;;;7.90;99.90;;;;;;4961685;28;20760;-72
2023/04/11 07:11:52;;;;;;;10.75;0.82;;;8.00;99.90;;;;;;4962300;28;20240;-73
2023/04/11 07:14:21;;;;;;;0.40;0.40;;;8.10;99.90;;;;;;4958942;28;20208;-73
2023/04/11 07:16:51;;;;;;;0.60;0.40;;;8.10;99.90;;;;;;4958750;28;20342;-72
2023/04/11 07:19:18;;;;;;;1.00;0.55;;;8.20;99.90;;;;;;4963668;28;20246;-73
2023/04/11 07:21:44;;;;;;;0.60;0.50;;;8.30;99.90;;;;;;4964794;28;20231;-73
2023/04/11 07:24:13;;;;;;;0.70;0.32;;;8.30;99.90;;;;;;4960559;28;20582;-74
2023/04/11 07:26:41;;;;;;;0.55;0.55;;;8.30;99.90;;;;;;4963986;28;20221;-74
2023/04/11 07:29:08;;;;;;;1.88;0.80;;;8.20;99.90;;;;;;4962067;28;20203;-73
2023/04/11 07:31:35;;;;;;;20.30;1.08;;;8.30;99.90;;;;;;4964485;28;20731;-73
2023/04/11 07:34:02;;;;;;;0.30;0.20;;;8.20;99.90;;;;;;4961639;28;20219;-72
2023/04/11 07:36:30;;;;;;;2.37;0.80;;;8.40;99.90;;;;;;4946048;28;20227;-72
2023/04/11 07:38:59;;;;;;;0.50;0.30;;;8.30;99.90;;;;;;4953956;28;20666;-74
2023/04/11 07:41:27;;;;;;;2.85;1.00;;;8.40;99.90;;;;;;4957463;28;20716;-75
2023/04/11 07:43:54;;;;;;;0.82;0.82;;;8.40;99.90;;;;;;4960930;28;20212;-73
2023/04/11 07:46:21;;;;;;;0.60;0.60;;;8.40;99.90;;;;;;4967040;28;20230;-73
2023/04/11 07:48:48;;;;;;;1.42;1.08;;;8.30;99.90;;;;;;4959934;28;20640;-74
2023/04/11 07:51:15;;;;;;;1.80;0.50;;;8.50;99.90;;;;;;4965764;28;20775;-74
2023/04/11 07:53:42;;;;;;;0.85;0.70;;;8.60;99.90;;;;;;4963851;28;20771;-77
2023/04/11 07:56:10;;;;;;;0.40;0.30;;;8.60;99.90;;;;;;4966928;28;20224;-75
2023/04/11 07:58:38;;;;;;;0.88;0.75;;;8.70;99.90;;;;;;4965556;28;20213;-74
2023/04/11 08:01:07;;;;;;;0.40;0.40;;;8.70;99.90;;;;;;4962503;28;20806;-72
2023/04/11 08:03:34;;;;;;;4.43;1.15;;;8.90;99.90;;;;;;4950356;28;20662;-74
2023/04/11 08:06:01;;;;;;;0.80;0.55;;;9.10;99.90;;;;;;4960066;28;20718;-73
2023/04/11 08:08:28;;;;;;;0.50;0.50;;;9.00;99.90;;;;;;4970432;28;20197;-73
2023/04/11 08:10:55;;;;;;;0.30;0.30;;;9.00;99.60;;;;;;4969681;28;20235;-75
2023/04/11 08:13:22;;;;;;;1.40;0.70;;;9.20;99.90;;;;;;4968809;28;20228;-74
2023/04/11 08:15:50;;;;;;;1.07;0.60;;;9.20;99.10;;;;;;4957055;28;20235;-74
2023/04/11 08:18:20;;;;;;;0.30;0.25;;;9.10;98.40;;;;;;4967412;28;20985;-74
2023/04/11 08:20:47;;;;;;;0.47;0.40;;;9.20;98.90;;;;;;4972155;28;20227;-74
2023/04/11 08:23:14;;;;;;;0.63;0.63;;;9.20;98.40;;;;;;4969655;28;20647;-75
2023/04/11 08:25:40;;;;;;;0.87;0.67;;;9.10;97.90;;;;;;4971047;28;20231;-75
2023/04/11 08:28:10;;;;;;;1.33;0.50;;;9.10;97.70;;;;;;4960264;28;20639;-75
2023/04/11 08:30:37;;;;;;;0.70;0.47;;;9.10;97.20;;;;;;4963923;28;20664;-74
2023/04/11 08:33:05;;;;;;;0.57;0.40;;;9.30;97.80;;;;;;4964497;28;20666;-74
2023/04/11 08:35:32;;;;;;;1.37;1.27;;;9.30;97.50;;;;;;4962171;28;20663;-74
2023/04/11 08:37:59;;;;;;;0.47;0.33;;;9.30;96.50;;;;;;4971004;28;20628;-74
2023/04/11 08:40:27;;;;;;;0.40;0.38;;;9.30;96.70;;;;;;4967289;28;20660;-75
2023/04/11 08:42:59;;;;;;;0.40;0.30;;;9.40;95.60;;;;;;4968777;28;20203;-74
2023/04/11 08:45:26;;;;;;;1.53;0.80;;;9.40;95.50;;;;;;4967346;28;20981;-75
2023/04/11 08:47:52;;;;;;;0.40;0.33;;;9.50;96.10;;;;;;4968798;28;20638;-75
2023/04/11 08:50:21;;;;;;;1.13;0.70;;;9.60;95.00;;;;;;4964711;28;20643;-76
2023/04/11 08:52:49;;;;;;;7.20;0.97;;;9.70;94.60;;;;;;4964521;28;20767;-75
2023/04/11 08:55:15;;;;;;;1.13;1.03;;;9.90;95.00;;;;;;4963031;28;20662;-75
2023/04/11 08:57:42;;;;;;;2.53;1.23;;;10.00;95.20;;;;;;4968827;28;20643;-75
2023/04/11 09:00:13;;;;;;;1.47;1.37;;;10.10;94.10;;;;;;4970028;28;20667;-75
2023/04/11 09:02:56;;;;;;;4.60;0.87;;;10.10;94.10;;;;;;4961084;28;20827;-76
2023/04/11 09:05:32;;;;;;;1.63;0.50;;;10.20;92.70;;;;;;4962392;28;22118;-76
2023/04/11 09:08:00;;;;;;;0.50;0.50;;;10.10;91.70;;;;;;4959468;28;20634;-75
2023/04/11 09:10:27;;;;;;;0.60;0.60;;;9.90;91.30;;;;;;4964157;28;21242;-75
2023/04/11 09:12:55;;;;;;;0.40;0.20;;;9.90;91.30;;;;;;4960510;28;20679;-76
2023/04/11 09:15:23;;;;;;;4.77;0.90;;;10.10;91.40;;;;;;4960658;28;20640;-74
2023/04/11 09:17:50;;;;;;;0.70;0.70;;;10.20;90.20;;;;;;4959436;28;20631;-76
2023/04/11 09:20:28;;;;;;;0.30;0.20;;;10.20;90.60;;;;;;4958391;28;21063;-75
2023/04/11 09:22:58;;;;;;;1.93;0.80;;;10.40;91.00;;;;;;4961448;28;20691;-76
2023/04/11 09:25:25;;;;;;;0.80;0.60;;;10.40;90.10;;;;;;4963039;28;21476;-75
2023/04/11 09:28:11;;;;;;;1.27;0.57;;;10.40;89.50;;;;;;4958558;28;20638;-77
2023/04/11 09:30:38;;;;;;;0.57;0.40;;;10.40;88.00;;;;;;4961691;28;20742;-75
2023/04/11 09:33:21;;;;;;;1.40;1.17;;;10.50;87.90;;;;;;4961245;28;20675;-75
2023/04/11 09:35:48;;;;;;;0.40;0.30;;;10.50;88.60;;;;;;4958673;28;21205;-75
2023/04/11 09:38:28;;;;;;;0.50;0.47;;;10.60;88.10;;;;;;4959866;28;21012;-75
2023/04/11 09:40:56;;;;;;;1.23;0.60;;;10.60;88.00;;;;;;4958141;28;20662;-75
2023/04/11 09:43:23;;;;;;;0.90;0.70;;;10.50;87.50;;;;;;4961859;28;20640;-74
2023/04/11 09:46:08;;;;;;;0.60;0.50;;;10.40;85.10;;;;;;4962056;28;21213;-75
2023/04/11 09:48:36;;;;;;;5.53;1.10;;;10.30;85.10;;;;;;4959502;28;21547;-76
2023/04/11 09:51:13;;;;;;;0.97;0.60;;;10.40;88.40;;;;;;4964603;28;20649;-76
2023/04/11 09:53:43;;;;;;;1.07;0.80;;;10.50;87.90;;;;;;4959922;28;20674;-75
2023/04/11 09:56:10;;;;;;;2.57;0.53;;;10.50;86.60;;;;;;4962223;28;20666;-75
2023/04/11 09:58:39;;;;;;;0.37;0.30;;;10.60;87.10;;;;;;4963112;28;20664;-74
2023/04/11 10:01:09;;;;;;;2.67;0.70;;;10.70;87.40;;;;;;4962726;28;20664;-75
2023/04/11 10:03:37;;;;;;;3.60;1.43;;;10.70;85.50;;;;;;4961910;28;20652;-75
2023/04/11 10:06:07;;;;;;;1.13;0.60;;;10.60;86.10;;;;;;4968234;28;20671;-75
2023/04/11 10:08:38;;;;;;;1.40;1.30;;;10.80;86.80;;;;;;4963042;28;20635;-76
2023/04/11 10:11:09;;;;;;;3.20;1.60;;;10.90;86.80;;;;;;4970519;28;20696;-76
2023/04/11 10:13:40;;;;;;;0.80;0.77;;;11.20;87.20;;;;;;4965427;28;20728;-75
2023/04/11 10:16:08;;;;;;;1.37;0.70;;;11.40;85.00;;;;;;4956983;28;20659;-76
2023/04/11 10:18:36;;;;;;;0.40;0.40;;;11.30;83.90;;;;;;4966359;28;20667;-79
2023/04/11 10:21:04;;;;;;;1.17;0.40;;;11.30;83.50;;;;;;4956489;28;21039;-82
2023/04/11 10:24:09;;;;;;;0.60;0.60;;;11.60;85.70;;;;;;4959445;28;20649;-78
2023/04/11 10:26:51;;;;;;;0.70;0.40;;;11.70;84.70;;;;;;4964817;28;20664;-79
2023/04/11 10:29:50;;;;;;;0.53;0.30;;;11.70;80.50;;;;;;4960670;28;20719;-79
2023/04/11 10:32:22;;;;;;;1.03;0.57;;;11.60;80.50;;;;;;4964342;28;20675;-82
2023/04/11 10:35:28;;;;;;;0.60;0.40;;;11.30;82.00;;;;;;4960302;28;20639;-74
2023/04/11 10:37:55;;;;;;;0.53;0.40;;;11.20;83.80;;;;;;4958409;28;20632;-75
2023/04/11 10:40:23;;;;;;;2.00;0.93;;;11.10;83.80;;;;;;4960477;28;21309;-78
2023/04/11 10:42:51;;;;;;;2.17;1.17;;;11.20;85.00;;;;;;4958524;28;21588;-77
2023/04/11 10:45:24;;;;;;;1.73;0.70;;;11.40;83.50;;;;;;4958790;28;20730;-73
2023/04/11 10:48:06;;;;;;;0.60;0.60;;;11.50;84.10;;;;;;4960180;28;20631;-77
2023/04/11 10:50:39;;;;;;;0.90;0.90;;;11.30;83.10;;;;;;4967707;28;20660;-76
2023/04/11 10:53:07;;;;;;;1.13;0.80;;;11.50;82.80;;;;;;4966102;28;20680;-79
2023/04/11 10:55:48;;;;;;;1.53;1.03;;;11.60;81.30;;;;;;4960315;28;20679;-84
2023/04/11 10:58:18;;;;;;;0.70;0.70;;;11.50;81.00;;;;;;4968038;28;20632;-84
2023/04/11 11:01:13;;;;;;;4.73;1.13;;;11.60;78.50;;;;;;4959954;28;21297;-79
2023/04/11 11:03:40;;;;;;;0.50;0.50;;;11.50;77.80;;;;;;4964146;28;21051;-88
2023/04/11 11:06:08;;;;;;;0.60;0.60;;;11.50;78.90;;;;;;4970211;28;20692;-78
2023/04/11 11:08:40;;;;;;;0.70;0.40;;;11.40;79.70;;;;;;4969979;28;20667;-77
2023/04/11 11:11:08;;;;;;;1.90;0.57;;;11.50;79.70;;;;;;4968077;28;21267;-72
2023/04/11 11:13:43;;;;;;;0.57;0.53;;;11.50;82.10;;;;;;4970042;28;20670;-72
2023/04/11 11:16:14;;;;;;;0.77;0.77;;;11.70;81.40;;;;;;4961362;28;20663;-73
2023/04/11 11:18:45;;;;;;;4.77;0.80;;;11.90;83.00;;;;;;4969740;28;21177;-73
2023/04/11 11:21:13;;;;;;;0.77;0.50;;;11.70;80.70;;;;;;4958114;28;20657;-73
2023/04/11 11:23:40;;;;;;;0.67;0.53;;;12.00;83.90;;;;;;4961104;28;20659;-72
2023/04/11 11:26:07;;;;;;;1.53;1.43;;;12.10;80.30;;;;;;4966174;28;20664;-73
2023/04/11 11:28:47;;;;;;;1.17;1.07;;;12.10;80.00;;;;;;4963597;28;20684;-72
2023/04/11 11:31:15;;;;;;;0.70;0.60;;;12.00;81.60;;;;;;4966190;28;20652;-72
2023/04/11 11:33:42;;;;;;;0.50;0.50;;;12.20;80.30;;;;;;4951581;28;20787;-73
2023/04/11 11:36:10;;;;;;;0.60;0.60;;;12.30;79.30;;;;;;4957728;28;20657;-74
2023/04/11 11:38:37;;;;;;;0.70;0.70;;;12.40;78.70;;;;;;4959275;28;20633;-73
2023/04/11 11:41:05;;;;;;;0.60;0.60;;;12.50;78.30;;;;;;4958569;28;20752;-72
2023/04/11 11:43:41;;;;;;;0.70;0.60;;;12.50;74.90;;;;;;4961380;28;21369;-73
2023/04/11 11:46:13;;;;;;;0.90;0.70;;;12.30;72.50;;;;;;4956268;28;21236;-73
2023/04/11 11:48:42;;;;;;;0.93;0.60;;;12.20;73.20;;;;;;4967073;28;20636;-73
2023/04/11 11:51:08;;;;;;;0.63;0.50;;;12.60;74.90;;;;;;4962362;28;20679;-71
2023/04/11 11:53:35;;;;;;;0.70;0.50;;;12.70;73.20;;;;;;4964065;28;20683;-78
2023/04/11 11:56:13;;;;;;;0.97;0.83;;;12.90;72.20;;;;;;4962963;28;21239;-71
2023/04/11 11:58:43;;;;;;;0.80;0.50;;;13.10;70.20;;;;;;4963802;28;20633;-72
2023/04/11 12:01:13;;;;;;;1.27;0.70;;;13.30;67.70;;;;;;4967422;28;20714;-72
2023/04/11 12:03:40;;;;;;;0.83;0.50;;;13.80;69.20;;;;;;4967564;28;20635;-72
2023/04/11 12:06:08;;;;;;;0.90;0.87;;;13.70;66.20;;;;;;4967168;28;20667;-71
2023/04/11 12:08:42;;;;;;;0.60;0.60;;;14.10;66.60;;;;;;4954198;28;20652;-72
2023/04/11 12:11:12;;;;;;;0.93;0.50;;;14.20;63.50;;;;;;4954853;28;21234;-72
2023/04/11 12:13:39;;;;;;;1.00;0.87;;;13.90;60.10;;;;;;4960704;28;20803;-72
2023/04/11 12:16:06;;;;;;;3.13;0.73;;;14.00;63.90;;;;;;4952360;28;21067;-72
2023/04/11 12:18:34;;;;;;;0.60;0.60;;;13.90;61.60;;;;;;4955323;28;20741;-72
2023/04/11 12:21:01;;;;;;;0.70;0.50;;;13.60;60.70;;;;;;4964726;28;20755;-72
2023/04/11 12:23:28;;;;;;;0.67;0.67;;;13.60;61.10;;;;;;4968001;28;21011;-72
2023/04/11 12:25:55;;;;;;;2.90;0.50;;;13.40;61.70;;;;;;4966738;28;20664;-73
2023/04/11 12:28:22;;;;;;;0.60;0.47;;;13.40;63.00;;;;;;4953163;28;20640;-73
2023/04/11 12:30:48;;;;;;;0.90;0.73;;;13.20;60.10;;;;;;4957742;28;20661;-73
2023/04/11 12:33:16;;;;;;;6.57;1.57;;;13.00;60.80;;;;;;4960190;28;20664;-72
2023/04/11 12:35:44;;;;;;;0.40;0.40;;;12.80;61.80;;;;;;4955927;28;20650;-73
2023/04/11 12:38:11;;;;;;;0.50;0.50;;;12.70;60.00;;;;;;4959219;28;21212;-72
2023/04/11 12:40:38;;;;;;;0.73;0.50;;;12.80;60.50;;;;;;4961579;28;20665;-71
2023/04/11 12:43:05;;;;;;;0.53;0.40;;;12.90;62.00;;;;;;4961273;28;20779;-71
2023/04/11 12:45:32;;;;;;;0.90;0.83;;;13.00;59.80;;;;;;4961523;28;20771;-71
2023/04/11 12:47:59;;;;;;;4.13;0.83;;;12.90;59.80;;;;;;4963491;28;20636;-72
2023/04/11 12:50:26;;;;;;;1.33;0.60;;;13.00;62.10;;;;;;4962014;28;20648;-72
2023/04/11 12:52:54;;;;;;;0.50;0.40;;;13.30;61.80;;;;;;4965373;28;20675;-72
2023/04/11 12:55:21;;;;;;;0.60;0.50;;;13.40;59.20;;;;;;4968101;28;21196;-71
2023/04/11 12:57:48;;;;;;;0.90;0.57;;;13.60;58.00;;;;;;4965721;28;20647;-71